Harpswell, Maine
Current Conditions -  °F | °C
As of 2:51 AM on Thursday 29 Jan 2015 (Local Time) from KPWM Reporting Station
Clear Clear  
Wind Chill: -5°   Ceiling: Unl
Heat Index:   Visibility: 10mi
Dew Point: -3°   Wind: 5mph
Humidity: 73%   Direction: 280°W
Pressure: 30.26"   Gusts: NA
Location:  43.74°N, 70.01°W
Report Text: KPWM 290751Z AUTO 28004KT 10SM CLR M16/M19 A3026 RMK AO2 SLP250 T11561194
Loading
Personal Weather Stations






























Interactive Weather Map New forecast layout! Learn more

10-Day Weather Forecast

Advertisements
Track Severe Weather on mobile